Time;durP1;ratioP1;P1;durP2;ratioP2;P2;SDS_P1;SDS_P2;PMS_P1;PMS_P2;Temp;Humidity;BMP_temperature;BMP_pressure;BME280_temperature;BME280_humidity;BME280_pressure;Samples;Min_cycle;Max_cycle;Signal;HPM_P1;HPM_P2
2023/01/31 00:00:54;;;;;;;10.33;4.07;;;;;;;;;;4971423;28;20239;-86
2023/01/31 00:03:21;;;;;;;11.87;4.53;;;;;;;;;;4972152;28;20213;-86
2023/01/31 00:05:48;;;;;;;8.47;4.63;;;;;;;;;;4971524;28;20236;-87
2023/01/31 00:08:17;;;;;;;10.37;4.80;;;;;;;;;;4972352;28;20228;-86
2023/01/31 00:10:44;;;;;;;7.83;3.93;;;;;;;;;;4971459;28;20298;-86
2023/01/31 00:13:11;;;;;;;10.30;4.43;;;;;;;;;;4971531;28;20219;-86
2023/01/31 00:15:38;;;;;;;12.27;5.17;;;;;;;;;;4971368;28;20242;-87
2023/01/31 00:18:05;;;;;;;9.53;4.30;;;;;;;;;;4971856;28;20224;-86
2023/01/31 00:20:32;;;;;;;11.00;4.40;;;;;;;;;;4971406;28;20240;-87
2023/01/31 00:22:59;;;;;;;11.47;5.40;;;;;;;;;;4971721;28;20210;-87
2023/01/31 00:25:28;;;;;;;11.77;4.80;;;;;;;;;;4971187;28;20581;-86
2023/01/31 00:27:55;;;;;;;6.07;4.70;;;;;;;;;;4971701;28;20235;-86
2023/01/31 00:30:22;;;;;;;14.50;5.40;;;;;;;;;;4971181;28;20234;-86
2023/01/31 00:32:49;;;;;;;8.87;4.50;;;;;;;;;;4970582;28;20207;-87
2023/01/31 00:35:16;;;;;;;8.80;4.87;;;;;;;;;;4971378;28;20240;-86
2023/01/31 00:37:43;;;;;;;10.17;4.73;;;;;;;;;;4971333;28;20226;-86
2023/01/31 00:40:11;;;;;;;15.37;5.37;;;;;;;;;;4971175;28;20232;-86
2023/01/31 00:42:39;;;;;;;15.13;4.60;;;;;;;;;;4971879;28;20248;-86
2023/01/31 00:45:07;;;;;;;12.13;4.93;;;;;;;;;;4952632;28;20237;-86
2023/01/31 00:47:34;;;;;;;14.50;5.17;;;;;;;;;;4952852;28;20259;-86
2023/01/31 00:50:01;;;;;;;9.83;4.87;;;;;;;;;;4952661;28;20247;-86
2023/01/31 00:52:28;;;;;;;19.43;4.83;;;;;;;;;;4952612;28;20224;-86
2023/01/31 00:54:55;;;;;;;14.27;5.33;;;;;;;;;;4968717;28;20242;-87
2023/01/31 00:57:22;;;;;;;9.03;4.57;;;;;;;;;;4971902;28;20239;-86
2023/01/31 00:59:51;;;;;;;8.23;4.70;;;;;;;;;;4971353;28;20640;-86
2023/01/31 01:02:18;;;;;;;10.70;4.57;;;;;;;;;;4971570;28;20669;-86
2023/01/31 01:04:45;;;;;;;11.73;4.77;;;;;;;;;;4970840;28;20309;-86
2023/01/31 01:07:12;;;;;;;8.37;3.97;;;;;;;;;;4971386;28;20274;-86
2023/01/31 01:09:39;;;;;;;9.60;4.40;;;;;;;;;;4970793;28;20738;-86
2023/01/31 01:12:06;;;;;;;12.37;5.30;;;;;;;;;;4971033;28;20680;-86
2023/01/31 01:14:33;;;;;;;7.83;5.30;;;;;;;;;;4970577;28;20242;-86
2023/01/31 01:17:01;;;;;;;11.57;5.37;;;;;;;;;;4970980;28;20233;-86
2023/01/31 01:19:29;;;;;;;10.93;6.13;;;;;;;;;;4970682;28;20325;-86
2023/01/31 01:21:57;;;;;;;11.03;4.53;;;;;;;;;;4971295;28;20239;-86
2023/01/31 01:24:24;;;;;;;19.50;6.07;;;;;;;;;;4970678;28;20240;-86
2023/01/31 01:26:51;;;;;;;11.40;5.23;;;;;;;;;;4971269;28;20236;-86
2023/01/31 01:29:18;;;;;;;9.27;4.80;;;;;;;;;;4970937;28;20265;-86
2023/01/31 01:31:45;;;;;;;11.33;5.73;;;;;;;;;;4970946;28;20222;-86
2023/01/31 01:34:14;;;;;;;11.77;5.30;;;;;;;;;;4970660;28;20243;-85
2023/01/31 01:36:41;;;;;;;12.20;5.10;;;;;;;;;;4970955;28;20234;-86
2023/01/31 01:39:10;;;;;;;7.93;4.30;;;;;;;;;;4971576;28;20721;-85
2023/01/31 01:41:40;;;;;;;8.40;5.00;;;;;;;;;;4971051;28;20610;-86
2023/01/31 01:44:22;;;;;;;10.23;5.63;;;;;;;;;;4969712;28;20208;-86
2023/01/31 01:46:50;;;;;;;14.03;5.30;;;;;;;;;;4970566;28;20775;-85
2023/01/31 01:49:20;;;;;;;11.90;5.87;;;;;;;;;;4970351;28;20225;-86
2023/01/31 01:51:48;;;;;;;12.20;5.67;;;;;;;;;;4971246;28;20268;-86
2023/01/31 01:54:17;;;;;;;13.47;6.37;;;;;;;;;;4970136;28;20239;-85
2023/01/31 01:56:46;;;;;;;8.63;5.43;;;;;;;;;;4970773;28;20282;-86
2023/01/31 01:59:15;;;;;;;7.00;5.60;;;;;;;;;;4969104;28;20258;-85
2023/01/31 02:01:43;;;;;;;12.97;5.60;;;;;;;;;;4970237;28;20305;-86
2023/01/31 02:04:13;;;;;;;11.80;5.33;;;;;;;;;;4969997;28;20214;-86
2023/01/31 02:06:42;;;;;;;13.23;4.87;;;;;;;;;;4969660;28;20233;-86
2023/01/31 02:09:12;;;;;;;12.37;5.37;;;;;;;;;;4970120;28;20210;-86
2023/01/31 02:11:39;;;;;;;9.63;4.67;;;;;;;;;;4970632;28;20197;-85
2023/01/31 02:14:08;;;;;;;10.73;5.67;;;;;;;;;;4969798;28;20665;-86
2023/01/31 02:16:35;;;;;;;15.20;5.40;;;;;;;;;;4970509;28;20260;-86
2023/01/31 02:19:03;;;;;;;5.90;4.33;;;;;;;;;;4970057;28;20232;-85
2023/01/31 02:21:52;;;;;;;16.53;6.47;;;;;;;;;;4970584;28;20201;-86
2023/01/31 02:24:41;;;;;;;16.90;5.40;;;;;;;;;;4970028;28;20251;-86
2023/01/31 02:27:17;;;;;;;9.67;5.00;;;;;;;;;;4970474;28;20240;-85
2023/01/31 02:30:12;;;;;;;13.60;5.60;;;;;;;;;;4970021;28;20241;-86
2023/01/31 02:33:01;;;;;;;11.60;5.27;;;;;;;;;;5003918;28;20970;-86
2023/01/31 02:35:34;;;;;;;10.33;5.47;;;;;;;;;;4969671;28;20247;-86
2023/01/31 02:38:08;;;;;;;14.37;5.70;;;;;;;;;;4990547;23;20235;-91
2023/01/31 02:40:38;;;;;;;14.13;5.77;;;;;;;;;;4971268;28;20240;-91
2023/01/31 02:43:12;;;;;;;14.90;5.47;;;;;;;;;;4971429;28;20286;-91
2023/01/31 02:45:46;;;;;;;7.50;3.90;;;;;;;;;;4971613;28;20391;-91
2023/01/31 02:48:18;;;;;;;8.97;4.30;;;;;;;;;;4971787;28;20253;-91
2023/01/31 02:50:47;;;;;;;11.00;4.40;;;;;;;;;;4971189;28;20232;-91
2023/01/31 02:53:19;;;;;;;10.30;5.57;;;;;;;;;;4972246;28;20213;-91
2023/01/31 02:58:36;;;;;;;14.90;4.47;;;;;;;;;;4974882;28;20652;-90
2023/01/31 03:01:05;;;;;;;9.10;4.17;;;;;;;;;;4974454;28;20743;-91
2023/01/31 03:03:35;;;;;;;10.67;4.07;;;;;;;;;;4975063;28;20206;-92
2023/01/31 03:06:22;;;;;;;13.60;4.40;;;;;;;;;;4974734;28;20244;-91
2023/01/31 03:08:52;;;;;;;11.53;4.13;;;;;;;;;;4975004;28;20711;-91
2023/01/31 03:11:20;;;;;;;10.00;4.70;;;;;;;;;;4975130;28;20254;-91
2023/01/31 03:13:53;;;;;;;13.70;4.10;;;;;;;;;;4958489;28;20214;-91
2023/01/31 03:19:13;;;;;;;6.93;3.50;;;;;;;;;;4975104;28;20220;-91
2023/01/31 03:21:43;;;;;;;11.93;3.90;;;;;;;;;;4973766;28;20211;-91
2023/01/31 03:24:10;;;;;;;6.97;3.67;;;;;;;;;;4954690;28;20275;-92
2023/01/31 03:26:37;;;;;;;10.23;3.97;;;;;;;;;;4954948;29;20202;-91
2023/01/31 03:29:06;;;;;;;7.27;3.70;;;;;;;;;;4954678;28;20213;-91
2023/01/31 03:31:36;;;;;;;9.33;4.00;;;;;;;;;;4959617;28;20206;-91
2023/01/31 03:34:05;;;;;;;9.47;3.97;;;;;;;;;;4974034;28;20214;-91
2023/01/31 03:36:36;;;;;;;16.17;5.00;;;;;;;;;;4974143;28;20207;-91
2023/01/31 03:39:10;;;;;;;7.23;3.87;;;;;;;;;;4974484;28;20563;-91
2023/01/31 03:41:43;;;;;;;17.97;4.90;;;;;;;;;;4973955;28;20228;-91
2023/01/31 03:44:12;;;;;;;10.60;4.67;;;;;;;;;;4973105;28;20248;-91
2023/01/31 03:46:43;;;;;;;14.37;4.97;;;;;;;;;;4974734;28;20761;-91
2023/01/31 03:49:12;;;;;;;8.70;4.20;;;;;;;;;;4974168;28;20245;-91
2023/01/31 03:51:43;;;;;;;8.23;4.27;;;;;;;;;;4974990;28;20577;-91
2023/01/31 03:54:14;;;;;;;9.60;3.60;;;;;;;;;;4973715;28;20254;-91
2023/01/31 03:56:43;;;;;;;8.10;3.97;;;;;;;;;;4974146;28;20606;-92
2023/01/31 03:59:22;;;;;;;8.63;4.23;;;;;;;;;;4973493;28;20253;-91
2023/01/31 04:01:51;;;;;;;12.50;4.37;;;;;;;;;;4972067;28;20193;-91
2023/01/31 04:04:21;;;;;;;8.70;4.20;;;;;;;;;;4954333;28;20288;-91
2023/01/31 04:06:49;;;;;;;10.77;4.00;;;;;;;;;;4954614;29;20240;-91
2023/01/31 04:09:16;;;;;;;9.50;4.27;;;;;;;;;;4954731;28;20243;-91
2023/01/31 04:11:47;;;;;;;6.93;4.17;;;;;;;;;;4954900;28;20206;-90
2023/01/31 04:14:14;;;;;;;8.17;4.37;;;;;;;;;;4953607;28;20238;-91
2023/01/31 04:16:41;;;;;;;8.63;4.00;;;;;;;;;;4954516;28;20202;-91
2023/01/31 04:19:08;;;;;;;12.23;4.40;;;;;;;;;;4954144;28;20243;-90
2023/01/31 04:21:35;;;;;;;10.23;4.00;;;;;;;;;;4954553;28;20221;-91
2023/01/31 04:24:04;;;;;;;12.27;3.93;;;;;;;;;;4953751;28;20579;-90
2023/01/31 04:26:31;;;;;;;8.80;3.90;;;;;;;;;;4954624;29;20210;-91
2023/01/31 04:28:58;;;;;;;9.03;4.47;;;;;;;;;;4957745;28;20198;-92
2023/01/31 04:31:26;;;;;;;9.17;3.90;;;;;;;;;;4974069;28;20220;-91
2023/01/31 04:33:53;;;;;;;9.73;4.13;;;;;;;;;;4973943;28;20657;-93
2023/01/31 04:36:20;;;;;;;10.57;4.47;;;;;;;;;;4973859;28;20197;-91
2023/01/31 04:38:47;;;;;;;8.23;4.07;;;;;;;;;;4973850;28;20236;-92
2023/01/31 04:41:15;;;;;;;11.80;4.67;;;;;;;;;;4973344;28;20249;-91
2023/01/31 04:43:43;;;;;;;14.03;4.60;;;;;;;;;;4974051;28;20220;-91
2023/01/31 04:46:10;;;;;;;8.50;3.30;;;;;;;;;;4973414;28;20365;-91
2023/01/31 04:48:38;;;;;;;9.03;4.07;;;;;;;;;;4973819;28;20701;-91
2023/01/31 04:51:05;;;;;;;7.70;4.57;;;;;;;;;;4973348;28;20236;-91
2023/01/31 04:53:32;;;;;;;10.70;4.43;;;;;;;;;;4973706;28;20204;-91
2023/01/31 04:55:59;;;;;;;11.73;4.00;;;;;;;;;;4973325;28;20713;-92
2023/01/31 04:58:27;;;;;;;13.97;3.83;;;;;;;;;;4973698;28;20236;-92
2023/01/31 05:00:55;;;;;;;7.43;4.00;;;;;;;;;;4973154;28;20240;-92
2023/01/31 05:03:22;;;;;;;11.43;5.23;;;;;;;;;;4973994;28;20220;-91
2023/01/31 05:05:49;;;;;;;10.57;3.33;;;;;;;;;;4973058;28;20586;-91
2023/01/31 05:08:16;;;;;;;11.03;4.00;;;;;;;;;;4968799;28;20818;-91
2023/01/31 05:10:43;;;;;;;8.23;3.97;;;;;;;;;;4958954;28;20729;-91
2023/01/31 05:13:10;;;;;;;9.07;4.10;;;;;;;;;;4973471;28;20689;-91
2023/01/31 05:15:40;;;;;;;10.27;3.93;;;;;;;;;;4972969;28;20236;-91
2023/01/31 05:18:07;;;;;;;11.00;4.00;;;;;;;;;;4972013;28;20232;-91
2023/01/31 05:20:37;;;;;;;6.87;3.70;;;;;;;;;;4972857;28;20248;-90
2023/01/31 05:23:04;;;;;;;7.67;4.07;;;;;;;;;;4972811;28;20201;-90
2023/01/31 05:25:31;;;;;;;12.03;4.10;;;;;;;;;;4972005;28;20606;-91
2023/01/31 05:27:58;;;;;;;7.17;3.77;;;;;;;;;;4972979;28;20282;-91
2023/01/31 05:30:26;;;;;;;9.53;4.80;;;;;;;;;;4973024;28;20236;-91
2023/01/31 05:32:54;;;;;;;6.93;3.50;;;;;;;;;;4973092;28;20624;-91
2023/01/31 05:35:21;;;;;;;15.10;4.20;;;;;;;;;;4972490;28;20239;-91
2023/01/31 05:37:48;;;;;;;12.57;3.77;;;;;;;;;;4972722;28;20244;-91
2023/01/31 05:40:16;;;;;;;12.23;3.90;;;;;;;;;;4972230;28;20245;-91
2023/01/31 05:42:44;;;;;;;9.10;3.20;;;;;;;;;;4972785;28;20212;-92
2023/01/31 05:45:12;;;;;;;6.47;3.87;;;;;;;;;;4972530;28;20240;-91
2023/01/31 05:47:39;;;;;;;8.23;4.40;;;;;;;;;;4973115;28;20229;-91
2023/01/31 05:50:08;;;;;;;9.87;3.97;;;;;;;;;;4972254;28;20237;-90
2023/01/31 05:52:35;;;;;;;10.67;3.83;;;;;;;;;;4972524;28;20217;-91
2023/01/31 05:55:02;;;;;;;13.00;5.23;;;;;;;;;;4960463;28;20249;-90
2023/01/31 05:57:29;;;;;;;6.17;4.23;;;;;;;;;;4953307;29;20598;-94
2023/01/31 06:00:11;;;;;;;9.10;4.30;;;;;;;;;;4952898;28;20245;-94
2023/01/31 06:02:39;;;;;;;9.67;4.97;;;;;;;;;;4953867;29;20210;-94
2023/01/31 06:05:08;;;;;;;14.33;5.27;;;;;;;;;;4952847;28;20260;-94
2023/01/31 06:07:35;;;;;;;10.43;4.30;;;;;;;;;;4953221;29;20225;-94
2023/01/31 06:10:02;;;;;;;8.60;4.30;;;;;;;;;;4953158;28;20233;-96
2023/01/31 06:12:30;;;;;;;7.37;3.87;;;;;;;;;;4952799;29;20658;-93
2023/01/31 06:14:57;;;;;;;12.67;4.63;;;;;;;;;;4952844;28;20287;-93
2023/01/31 06:17:24;;;;;;;8.80;3.90;;;;;;;;;;4952777;28;20237;-94
2023/01/31 06:19:51;;;;;;;16.17;4.43;;;;;;;;;;4952869;28;20245;-92
2023/01/31 06:22:20;;;;;;;8.93;3.63;;;;;;;;;;4953222;29;20223;-92
2023/01/31 06:24:47;;;;;;;13.33;4.33;;;;;;;;;;4952338;28;20238;-92
2023/01/31 06:27:14;;;;;;;7.87;4.43;;;;;;;;;;4953041;29;20233;-92
2023/01/31 06:29:41;;;;;;;12.37;4.37;;;;;;;;;;4952686;28;20230;-92
2023/01/31 06:32:08;;;;;;;11.93;3.70;;;;;;;;;;4956086;28;20240;-93
2023/01/31 06:34:35;;;;;;;10.57;4.57;;;;;;;;;;4957131;28;20233;-91
2023/01/31 06:37:02;;;;;;;9.00;4.00;;;;;;;;;;4960559;28;20700;-90
2023/01/31 06:39:30;;;;;;;10.37;4.10;;;;;;;;;;4962384;28;20241;-90
2023/01/31 06:41:57;;;;;;;9.57;3.87;;;;;;;;;;4959431;28;20205;-90
2023/01/31 06:44:24;;;;;;;7.80;4.60;;;;;;;;;;4956756;28;20233;-90
2023/01/31 06:46:51;;;;;;;24.83;9.80;;;;;;;;;;4957848;28;20700;-90
2023/01/31 06:49:18;;;;;;;5.47;3.40;;;;;;;;;;4957150;28;20234;-91
2023/01/31 06:51:46;;;;;;;17.57;5.60;;;;;;;;;;4973594;28;20205;-90
2023/01/31 06:54:13;;;;;;;12.73;5.30;;;;;;;;;;4976944;28;20240;-90
2023/01/31 06:56:41;;;;;;;9.97;3.60;;;;;;;;;;4976954;28;20212;-90
2023/01/31 06:59:09;;;;;;;6.23;3.80;;;;;;;;;;4977732;28;20228;-90
2023/01/31 07:01:36;;;;;;;6.57;3.83;;;;;;;;;;4976744;28;20211;-90
2023/01/31 07:04:03;;;;;;;11.57;4.70;;;;;;;;;;4976947;28;20204;-92
2023/01/31 07:06:30;;;;;;;9.47;4.10;;;;;;;;;;4957657;28;20208;-94
2023/01/31 07:08:57;;;;;;;9.10;4.20;;;;;;;;;;4955647;28;20202;-95
2023/01/31 07:11:24;;;;;;;14.03;5.50;;;;;;;;;;4956575;29;20198;-95
2023/01/31 07:13:53;;;;;;;10.40;4.80;;;;;;;;;;4956218;28;20243;-91
2023/01/31 07:16:30;;;;;;;11.47;4.77;;;;;;;;;;4959147;28;20210;-96
2023/01/31 07:18:57;;;;;;;10.93;4.83;;;;;;;;;;4971212;28;20213;-94
2023/01/31 07:21:25;;;;;;;7.90;4.47;;;;;;;;;;5011097;28;20198;-90
2023/01/31 07:23:52;;;;;;;14.57;4.43;;;;;;;;;;5037751;28;20211;-94
2023/01/31 07:26:19;;;;;;;12.77;5.23;;;;;;;;;;5038650;28;20202;-95
2023/01/31 07:28:47;;;;;;;15.27;5.03;;;;;;;;;;5038511;28;20223;-95
2023/01/31 07:31:15;;;;;;;11.53;4.20;;;;;;;;;;5037530;28;20226;-93
2023/01/31 07:33:43;;;;;;;13.70;4.83;;;;;;;;;;5036371;28;20206;-94
2023/01/31 07:36:12;;;;;;;11.20;5.67;;;;;;;;;;5037178;28;20254;-93
2023/01/31 07:38:39;;;;;;;10.43;4.83;;;;;;;;;;5037353;28;20245;-93
2023/01/31 07:41:07;;;;;;;15.97;5.47;;;;;;;;;;5036705;28;20695;-93
2023/01/31 07:43:35;;;;;;;9.13;4.97;;;;;;;;;;5037238;28;20214;-92
2023/01/31 07:46:03;;;;;;;11.30;5.10;;;;;;;;;;5036918;28;20253;-94
2023/01/31 07:48:31;;;;;;;18.80;6.93;;;;;;;;;;5037907;28;20222;-93
2023/01/31 07:50:59;;;;;;;9.50;6.00;;;;;;;;;;5036885;28;20231;-93
2023/01/31 07:53:30;;;;;;;17.70;6.67;;;;;;;;;;5039208;28;20195;-94
2023/01/31 07:56:05;;;;;;;18.33;7.17;;;;;;;;;;5036333;28;20809;-92
2023/01/31 07:58:34;;;;;;;12.90;6.23;;;;;;;;;;5036886;28;20230;-93
2023/01/31 08:03:44;;;;;;;13.07;5.87;;;;;;;;;;5004360;28;20694;-94
2023/01/31 08:06:12;;;;;;;15.13;5.40;;;;;;;;;;5038539;28;20246;-94
2023/01/31 08:08:39;;;;;;;16.10;7.77;;;;;;;;;;5036681;28;20227;-91
2023/01/31 08:11:09;;;;;;;9.63;5.93;;;;;;;;;;5013899;28;20234;-91
2023/01/31 08:13:36;;;;;;;7.80;5.00;;;;;;;;;;4954840;29;20687;-92
2023/01/31 08:16:04;;;;;;;14.43;8.80;;;;;;;;;;4954949;28;20240;-93
2023/01/31 08:18:31;;;;;;;12.87;7.27;;;;;;;;;;4955367;29;20229;-91
2023/01/31 08:21:00;;;;;;;11.87;6.57;;;;;;;;;;4954905;28;20249;-92
2023/01/31 08:23:27;;;;;;;10.37;7.43;;;;;;;;;;4955477;29;20232;-92
2023/01/31 08:25:59;;;;;;;12.53;7.13;;;;;;;;;;4955396;28;20237;-91
2023/01/31 08:28:26;;;;;;;13.80;7.90;;;;;;;;;;4955012;29;20705;-90
2023/01/31 08:30:53;;;;;;;16.00;8.53;;;;;;;;;;4954872;28;20727;-93
2023/01/31 08:33:20;;;;;;;18.60;8.10;;;;;;;;;;4954983;28;20642;-89
2023/01/31 08:35:47;;;;;;;15.43;8.43;;;;;;;;;;4954341;28;20233;-89
2023/01/31 08:38:16;;;;;;;10.87;6.63;;;;;;;;;;4954926;29;20654;-87
2023/01/31 08:40:49;;;;;;;14.00;8.47;;;;;;;;;;4953426;28;20246;-92
2023/01/31 08:43:16;;;;;;;12.70;7.87;;;;;;;;;;4953969;29;20304;-87
2023/01/31 08:45:44;;;;;;;8.73;5.87;;;;;;;;;;4953633;28;20241;-88
2023/01/31 08:48:11;;;;;;;10.53;5.87;;;;;;;;;;4954012;29;20622;-89
2023/01/31 08:50:38;;;;;;;16.73;7.70;;;;;;;;;;4953534;28;20237;-88
2023/01/31 08:53:05;;;;;;;12.03;6.90;;;;;;;;;;4952467;29;20217;-88
2023/01/31 08:55:35;;;;;;;11.20;6.20;;;;;;;;;;4953329;28;20250;-88
2023/01/31 08:58:04;;;;;;;9.03;5.13;;;;;;;;;;4954031;29;20234;-88
2023/01/31 09:00:31;;;;;;;10.30;5.97;;;;;;;;;;4953204;28;20244;-88
2023/01/31 09:03:00;;;;;;;10.63;7.43;;;;;;;;;;4953981;29;20213;-88
2023/01/31 09:05:28;;;;;;;13.90;7.37;;;;;;;;;;4952883;28;20240;-88
2023/01/31 09:07:56;;;;;;;20.33;8.00;;;;;;;;;;4953598;28;20230;-86
2023/01/31 09:10:23;;;;;;;12.73;6.87;;;;;;;;;;4953156;28;20229;-87
2023/01/31 09:12:51;;;;;;;15.80;7.67;;;;;;;;;;4953370;28;20216;-88
2023/01/31 09:15:19;;;;;;;12.27;7.60;;;;;;;;;;4953069;28;20240;-88
2023/01/31 09:17:46;;;;;;;12.17;7.73;;;;;;;;;;4953770;28;20247;-87
2023/01/31 09:20:13;;;;;;;12.20;7.40;;;;;;;;;;4953255;28;20265;-88
2023/01/31 09:23:07;;;;;;;13.40;7.00;;;;;;;;;;4953309;28;20216;-88
2023/01/31 09:25:34;;;;;;;14.83;8.70;;;;;;;;;;4953276;28;20268;-87
2023/01/31 09:28:02;;;;;;;12.83;6.77;;;;;;;;;;4953608;28;20231;-89
2023/01/31 09:30:29;;;;;;;17.63;8.80;;;;;;;;;;4953510;28;20233;-90
2023/01/31 09:32:56;;;;;;;14.20;7.23;;;;;;;;;;4953514;29;20258;-89
2023/01/31 09:35:23;;;;;;;12.77;7.57;;;;;;;;;;4953519;28;20248;-93
2023/01/31 09:37:51;;;;;;;16.63;8.00;;;;;;;;;;4953673;28;20225;-93
2023/01/31 09:40:22;;;;;;;13.60;7.07;;;;;;;;;;4953403;28;20774;-93
2023/01/31 09:42:51;;;;;;;11.63;6.47;;;;;;;;;;4954209;29;20215;-91
2023/01/31 09:45:27;;;;;;;15.27;7.37;;;;;;;;;;4953601;28;20248;-89
2023/01/31 09:47:57;;;;;;;10.63;7.20;;;;;;;;;;4954116;29;20430;-88
2023/01/31 09:50:28;;;;;;;8.67;5.93;;;;;;;;;;4953706;28;20666;-88
2023/01/31 09:52:55;;;;;;;13.27;8.20;;;;;;;;;;4954346;29;20186;-89
2023/01/31 09:55:27;;;;;;;11.77;7.10;;;;;;;;;;4953991;28;20238;-88
2023/01/31 09:58:08;;;;;;;13.77;8.00;;;;;;;;;;4953828;29;20238;-89
2023/01/31 10:00:39;;;;;;;12.50;7.37;;;;;;;;;;4954038;28;20261;-89
2023/01/31 10:03:17;;;;;;;16.33;8.57;;;;;;;;;;4972464;28;20212;-90
2023/01/31 10:05:50;;;;;;;11.83;7.40;;;;;;;;;;4971036;28;20240;-89
2023/01/31 10:08:21;;;;;;;11.23;6.93;;;;;;;;;;4965998;28;20227;-89
2023/01/31 10:10:51;;;;;;;8.27;5.80;;;;;;;;;;5032944;28;20236;-91
2023/01/31 10:13:21;;;;;;;13.83;7.77;;;;;;;;;;5052946;28;20301;-89
2023/01/31 10:15:51;;;;;;;14.37;8.13;;;;;;;;;;5038000;28;20279;-89
2023/01/31 10:18:23;;;;;;;15.33;7.20;;;;;;;;;;5053227;28;20594;-88
2023/01/31 10:20:55;;;;;;;8.67;5.80;;;;;;;;;;5052390;28;20261;-89
2023/01/31 10:23:26;;;;;;;13.77;6.87;;;;;;;;;;5052602;28;20193;-88
2023/01/31 10:25:54;;;;;;;15.57;8.13;;;;;;;;;;5052124;28;20236;-88
2023/01/31 10:28:24;;;;;;;15.70;8.50;;;;;;;;;;4995648;28;20240;-88
2023/01/31 10:30:56;;;;;;;11.07;6.90;;;;;;;;;;5025400;28;20232;-90
2023/01/31 10:33:29;;;;;;;11.97;7.30;;;;;;;;;;5035807;28;20209;-88
2023/01/31 10:35:59;;;;;;;11.17;7.37;;;;;;;;;;5018123;28;20295;-88
2023/01/31 10:38:28;;;;;;;16.87;8.67;;;;;;;;;;4951517;28;20601;-87
2023/01/31 10:40:57;;;;;;;11.53;7.23;;;;;;;;;;4951225;28;20289;-88
2023/01/31 10:43:29;;;;;;;16.90;6.67;;;;;;;;;;4995848;28;20206;-87
2023/01/31 10:45:59;;;;;;;14.47;6.77;;;;;;;;;;5014039;28;20237;-87
2023/01/31 10:48:29;;;;;;;16.10;7.67;;;;;;;;;;4972310;28;20577;-87
2023/01/31 10:51:05;;;;;;;14.60;7.67;;;;;;;;;;4957123;28;20234;-87
2023/01/31 10:53:36;;;;;;;14.50;8.30;;;;;;;;;;4932955;29;20204;-86
2023/01/31 10:56:05;;;;;;;12.80;6.97;;;;;;;;;;5013672;28;20244;-86
2023/01/31 10:58:48;;;;;;;16.70;8.17;;;;;;;;;;5052473;28;20236;-87
2023/01/31 11:01:16;;;;;;;11.93;8.07;;;;;;;;;;4954419;28;20227;-89
2023/01/31 11:03:48;;;;;;;13.57;6.70;;;;;;;;;;4954277;28;20205;-88
2023/01/31 11:06:15;;;;;;;18.10;8.20;;;;;;;;;;4978929;28;20221;-87
2023/01/31 11:08:44;;;;;;;10.00;7.13;;;;;;;;;;4952855;28;20514;-88
2023/01/31 11:11:12;;;;;;;12.57;7.03;;;;;;;;;;4951047;28;20238;-88
2023/01/31 11:13:40;;;;;;;13.77;7.27;;;;;;;;;;4951603;29;20212;-88
2023/01/31 11:16:08;;;;;;;10.70;6.63;;;;;;;;;;5013828;28;20632;-87
2023/01/31 11:18:43;;;;;;;14.53;8.23;;;;;;;;;;4996315;28;20240;-88
2023/01/31 11:21:10;;;;;;;10.77;7.67;;;;;;;;;;5053620;28;20232;-87
2023/01/31 11:23:37;;;;;;;10.90;6.57;;;;;;;;;;5009658;28;20221;-87
2023/01/31 11:26:05;;;;;;;15.13;7.83;;;;;;;;;;4996344;28;20712;-90
2023/01/31 11:28:41;;;;;;;14.80;7.97;;;;;;;;;;4954635;28;20747;-90
2023/01/31 11:31:23;;;;;;;16.50;8.10;;;;;;;;;;4953597;28;20240;-89
2023/01/31 11:33:58;;;;;;;20.97;8.13;;;;;;;;;;4955132;28;20263;-89
2023/01/31 11:36:25;;;;;;;11.97;7.27;;;;;;;;;;4986451;28;20657;-88
2023/01/31 11:38:53;;;;;;;16.30;8.07;;;;;;;;;;4953816;28;20729;-89
2023/01/31 11:41:30;;;;;;;16.47;7.00;;;;;;;;;;4954429;29;20226;-88
2023/01/31 11:44:07;;;;;;;12.80;7.10;;;;;;;;;;4956147;28;20654;-89
2023/01/31 11:46:43;;;;;;;15.47;8.27;;;;;;;;;;5055299;28;20209;-88
2023/01/31 11:49:18;;;;;;;15.87;7.37;;;;;;;;;;5054891;28;20230;-87
2023/01/31 11:51:45;;;;;;;10.37;6.33;;;;;;;;;;5055349;28;20220;-88
2023/01/31 11:54:17;;;;;;;9.13;6.67;;;;;;;;;;5054766;28;20229;-88
2023/01/31 11:56:46;;;;;;;15.07;7.50;;;;;;;;;;5002685;28;20194;-87
2023/01/31 11:59:23;;;;;;;15.47;6.37;;;;;;;;;;4953554;28;20233;-88
2023/01/31 12:01:51;;;;;;;14.07;7.33;;;;;;;;;;4954929;28;20251;-87
2023/01/31 12:04:22;;;;;;;15.43;7.43;;;;;;;;;;4963793;28;20243;-86
2023/01/31 12:07:00;;;;;;;11.77;6.87;;;;;;;;;;5027798;28;20236;-88
2023/01/31 12:09:28;;;;;;;18.47;9.23;;;;;;;;;;5031106;28;20713;-88
2023/01/31 12:11:56;;;;;;;14.90;6.20;;;;;;;;;;4954219;28;20205;-86
2023/01/31 12:14:24;;;;;;;9.97;6.67;;;;;;;;;;4953688;28;20233;-87
2023/01/31 12:16:54;;;;;;;11.27;5.83;;;;;;;;;;5017737;28;20244;-88
2023/01/31 12:19:27;;;;;;;12.90;6.80;;;;;;;;;;5042531;28;20247;-89
2023/01/31 12:21:58;;;;;;;17.50;9.87;;;;;;;;;;4973032;28;20243;-89
2023/01/31 12:24:29;;;;;;;22.93;10.93;;;;;;;;;;5015291;28;20237;-89
2023/01/31 12:26:58;;;;;;;14.97;7.67;;;;;;;;;;5043870;28;20304;-89
2023/01/31 12:29:52;;;;;;;19.60;10.13;;;;;;;;;;5046918;28;20237;-88
2023/01/31 12:32:30;;;;;;;18.77;7.97;;;;;;;;;;4992710;28;20209;-86
2023/01/31 12:35:13;;;;;;;10.03;4.97;;;;;;;;;;5000582;28;20240;-88
2023/01/31 12:37:44;;;;;;;12.03;6.57;;;;;;;;;;5053982;28;20241;-88
2023/01/31 12:40:22;;;;;;;17.23;7.70;;;;;;;;;;5053532;28;20239;-88
2023/01/31 12:42:56;;;;;;;10.00;6.77;;;;;;;;;;5054256;28;20213;-90
2023/01/31 12:45:32;;;;;;;15.90;6.97;;;;;;;;;;5053779;28;20242;-90
2023/01/31 12:48:23;;;;;;;19.47;8.50;;;;;;;;;;5054508;28;20229;-89
2023/01/31 12:50:54;;;;;;;12.17;6.07;;;;;;;;;;5048494;28;20713;-91
2023/01/31 12:53:30;;;;;;;10.37;5.37;;;;;;;;;;5054166;28;20221;-87
2023/01/31 12:56:04;;;;;;;12.30;8.73;;;;;;;;;;5054533;28;20230;-86
2023/01/31 12:58:39;;;;;;;13.77;6.03;;;;;;;;;;5009665;28;20267;-89
2023/01/31 13:01:09;;;;;;;14.97;6.67;;;;;;;;;;5029391;28;20228;-90
2023/01/31 13:03:46;;;;;;;9.83;5.93;;;;;;;;;;4971726;28;20197;-89
2023/01/31 13:06:16;;;;;;;13.90;5.97;;;;;;;;;;4972202;28;20242;-88
2023/01/31 13:08:45;;;;;;;13.33;6.30;;;;;;;;;;4982655;28;20236;-89
2023/01/31 13:11:14;;;;;;;10.70;6.63;;;;;;;;;;5054154;28;20232;-88
2023/01/31 13:13:43;;;;;;;9.97;6.23;;;;;;;;;;5054321;28;20266;-88
2023/01/31 13:16:13;;;;;;;9.27;5.73;;;;;;;;;;5053789;28;20273;-88
2023/01/31 13:18:41;;;;;;;12.43;6.53;;;;;;;;;;5053689;28;20245;-88
2023/01/31 13:21:09;;;;;;;5.67;4.13;;;;;;;;;;5015181;28;20241;-89
2023/01/31 13:23:40;;;;;;;12.87;7.07;;;;;;;;;;5054988;28;20209;-87
2023/01/31 13:26:10;;;;;;;11.63;6.03;;;;;;;;;;5054698;28;20584;-87
2023/01/31 13:28:41;;;;;;;6.73;5.00;;;;;;;;;;5055139;28;20261;-89
2023/01/31 13:31:10;;;;;;;11.07;5.53;;;;;;;;;;4953516;28;20713;-89
2023/01/31 13:33:38;;;;;;;16.37;7.13;;;;;;;;;;4952975;28;20297;-89
2023/01/31 13:36:17;;;;;;;16.57;7.37;;;;;;;;;;4951651;28;20233;-87
2023/01/31 13:38:48;;;;;;;7.37;5.53;;;;;;;;;;4952188;28;20245;-89
2023/01/31 13:41:19;;;;;;;9.07;6.43;;;;;;;;;;4933823;28;20333;-88
2023/01/31 13:43:46;;;;;;;7.23;5.57;;;;;;;;;;4934173;28;20210;-90
2023/01/31 13:46:14;;;;;;;9.70;6.03;;;;;;;;;;4934236;28;20242;-88
2023/01/31 13:48:43;;;;;;;7.07;4.63;;;;;;;;;;4934257;28;20234;-91
2023/01/31 13:51:16;;;;;;;10.20;5.77;;;;;;;;;;5046875;28;20229;-91
2023/01/31 13:53:45;;;;;;;12.33;7.63;;;;;;;;;;5054675;28;20213;-88
2023/01/31 13:56:18;;;;;;;10.17;5.23;;;;;;;;;;4992735;28;20225;-88
2023/01/31 13:58:45;;;;;;;13.40;5.83;;;;;;;;;;4936310;28;20796;-89
2023/01/31 14:01:16;;;;;;;9.43;6.70;;;;;;;;;;5043101;28;20245;-89
2023/01/31 14:04:03;;;;;;;13.30;6.93;;;;;;;;;;5054098;28;20571;-90
2023/01/31 14:06:44;;;;;;;11.10;6.73;;;;;;;;;;5053452;28;20284;-89
2023/01/31 14:09:22;;;;;;;10.53;6.13;;;;;;;;;;5053503;28;20702;-89
2023/01/31 14:11:51;;;;;;;12.13;6.17;;;;;;;;;;5054313;28;20202;-89
2023/01/31 14:14:29;;;;;;;14.20;7.40;;;;;;;;;;5053310;28;20237;-89
2023/01/31 14:16:57;;;;;;;9.13;5.47;;;;;;;;;;5007578;28;20237;-88
2023/01/31 14:19:48;;;;;;;9.23;6.73;;;;;;;;;;4977649;28;20237;-91
2023/01/31 14:22:26;;;;;;;13.60;7.33;;;;;;;;;;4972061;28;20666;-90
2023/01/31 14:24:58;;;;;;;10.73;6.80;;;;;;;;;;5053406;28;20237;-91
2023/01/31 14:27:28;;;;;;;11.57;6.83;;;;;;;;;;4954973;28;20236;-91
2023/01/31 14:29:58;;;;;;;10.57;5.73;;;;;;;;;;4958331;28;20237;-90
2023/01/31 14:32:29;;;;;;;14.90;6.90;;;;;;;;;;5054070;28;20225;-90
2023/01/31 14:34:57;;;;;;;11.43;7.83;;;;;;;;;;5023543;28;20229;-90
2023/01/31 14:37:37;;;;;;;12.67;7.00;;;;;;;;;;4969835;23;20452;-92
2023/01/31 14:40:08;;;;;;;15.10;6.73;;;;;;;;;;4979273;28;20968;-89
2023/01/31 14:42:43;;;;;;;17.73;6.23;;;;;;;;;;4971400;28;20704;-91
2023/01/31 14:45:18;;;;;;;8.50;5.93;;;;;;;;;;4972896;28;20236;-90
2023/01/31 14:47:53;;;;;;;16.27;7.30;;;;;;;;;;4973068;28;20267;-90
2023/01/31 14:50:38;;;;;;;11.43;7.20;;;;;;;;;;4973425;28;20242;-90
2023/01/31 14:53:17;;;;;;;10.90;7.63;;;;;;;;;;4976186;28;20218;-91
2023/01/31 14:56:05;;;;;;;13.07;7.43;;;;;;;;;;4975634;28;20271;-89
2023/01/31 14:58:34;;;;;;;13.03;8.00;;;;;;;;;;4974460;28;20228;-90